createdAt,value
2022-07-28T00:01:57.464Z,98379.78
2022-07-28T00:04:29.152Z,98380.59
2022-07-28T00:07:10.594Z,98377.84
2022-07-28T00:09:46.165Z,98388.31
2022-07-28T00:12:30.097Z,98382.41
2022-07-28T00:15:00.390Z,98386.28
2022-07-28T00:17:40.909Z,98381.09
2022-07-28T00:20:14.282Z,98385.81
2022-07-28T00:22:50.630Z,98374.09
2022-07-28T00:25:24.229Z,98392.31
2022-07-28T00:28:01.829Z,98392.41
2022-07-28T00:30:33.387Z,98382.66
2022-07-28T00:33:04.589Z,98378.41
2022-07-28T00:35:39.300Z,98379.78
2022-07-28T00:38:10.629Z,98377.41
2022-07-28T00:41:02.610Z,98381.69
2022-07-28T00:43:30.626Z,98381.94
2022-07-28T00:46:03.961Z,98365.47
2022-07-28T00:48:37.723Z,98352.56
2022-07-28T00:51:19.168Z,98359.75
2022-07-28T00:54:05.166Z,98353.34
2022-07-28T00:56:47.047Z,98354.50
2022-07-28T00:59:16.600Z,98359.94
2022-07-28T01:01:47.467Z,98355.03
2022-07-28T01:04:18.394Z,98345.56
2022-07-28T01:07:27.536Z,98358.84
2022-07-28T01:10:16.637Z,98348.97
2022-07-28T01:13:38.504Z,98356.41
2022-07-28T01:16:11.624Z,98352.31
2022-07-28T01:19:07.835Z,98361.19
2022-07-28T01:21:40.143Z,98344.22
2022-07-28T01:24:33.419Z,98362.72
2022-07-28T01:27:43.144Z,98366.97
2022-07-28T01:30:52.355Z,98356.97
2022-07-28T01:33:32.303Z,98367.72
2022-07-28T01:36:16.227Z,98364.09
2022-07-28T01:38:49.651Z,98366.72
2022-07-28T01:41:24.355Z,98369.56
2022-07-28T01:44:16.597Z,98367.97
2022-07-28T01:46:55.956Z,98362.28
2022-07-28T01:49:34.542Z,98360.84
2022-07-28T01:52:12.195Z,98361.81
2022-07-28T01:54:58.898Z,98359.97
2022-07-28T01:57:30.242Z,98356.00
2022-07-28T02:00:13.092Z,98367.56
2022-07-28T02:02:48.506Z,98363.28
2022-07-28T02:05:33.135Z,98364.16
2022-07-28T02:08:06.439Z,98364.47
2022-07-28T02:11:09.875Z,98339.06
2022-07-28T02:13:43.302Z,98351.00
2022-07-28T02:16:17.176Z,98365.47
2022-07-28T02:18:51.588Z,98366.97
2022-07-28T02:21:36.327Z,98350.63
2022-07-28T02:24:20.191Z,98361.94
2022-07-28T02:26:56.783Z,98355.53
2022-07-28T02:29:50.358Z,98355.41
2022-07-28T02:32:32.431Z,98356.69
2022-07-28T02:35:16.552Z,98357.72
2022-07-28T02:37:55.742Z,98350.41
2022-07-28T02:40:32.997Z,98348.16
2022-07-28T02:43:05.819Z,98361.75
2022-07-28T02:45:39.465Z,98351.53
2022-07-28T02:48:15.940Z,98353.41
2022-07-28T02:51:01.729Z,98360.59
2022-07-28T02:53:30.596Z,98323.81
2022-07-28T02:56:04.438Z,98352.44
2022-07-28T02:58:36.162Z,98374.56
2022-07-28T03:01:15.517Z,98362.75
2022-07-28T03:03:46.708Z,98350.66
2022-07-28T03:06:16.951Z,98362.59
2022-07-28T03:08:57.608Z,98366.44
2022-07-28T03:11:34.981Z,98378.09
2022-07-28T03:14:17.444Z,98373.31
2022-07-28T03:16:55.520Z,98366.47
2022-07-28T03:19:38.507Z,98379.78
2022-07-28T03:22:27.369Z,98387.94
2022-07-28T03:25:02.962Z,98389.09
2022-07-28T03:27:50.127Z,98388.53
2022-07-28T03:30:26.487Z,98384.56
2022-07-28T03:33:21.886Z,98395.97
2022-07-28T03:36:04.660Z,98391.56
2022-07-28T03:38:50.463Z,98395.25
2022-07-28T03:41:34.534Z,98403.19
2022-07-28T03:44:05.869Z,98394.13
2022-07-28T03:46:39.633Z,98394.41
2022-07-28T03:52:03.530Z,98407.81
2022-07-28T03:54:40.782Z,98387.91
2022-07-28T03:57:15.071Z,98413.88
2022-07-28T03:59:54.092Z,98414.56
2022-07-28T04:02:32.100Z,98419.31
2022-07-28T04:05:10.054Z,98405.69
2022-07-28T04:07:51.031Z,98422.34
2022-07-28T04:10:28.625Z,98431.09
2022-07-28T04:13:06.270Z,98442.88
2022-07-28T04:15:36.281Z,98447.75
2022-07-28T04:18:13.533Z,98448.47
2022-07-28T04:20:59.057Z,98441.16
2022-07-28T04:23:33.706Z,98455.53
2022-07-28T04:26:18.408Z,98454.41
2022-07-28T04:28:48.095Z,98451.09
2022-07-28T04:34:06.278Z,98454.09
2022-07-28T04:36:44.828Z,98460.41
2022-07-28T04:39:19.156Z,98450.75
2022-07-28T04:41:54.527Z,98459.88
2022-07-28T04:44:25.321Z,98471.03
2022-07-28T04:46:54.635Z,98465.25
2022-07-28T04:49:29.639Z,98463.50
2022-07-28T04:52:08.286Z,98466.19
2022-07-28T04:54:42.712Z,98468.22
2022-07-28T04:57:14.466Z,98469.59
2022-07-28T04:59:50.909Z,98477.63
2022-07-28T05:02:25.601Z,98482.78
2022-07-28T05:04:56.351Z,98484.38
2022-07-28T05:07:33.139Z,98487.28
2022-07-28T05:10:07.308Z,98490.94
2022-07-28T05:12:50.981Z,98463.75
2022-07-28T05:15:28.326Z,98490.34
2022-07-28T05:18:10.190Z,98489.88
2022-07-28T05:20:48.187Z,98485.84
2022-07-28T05:23:27.164Z,98479.13
2022-07-28T05:25:55.418Z,98483.97
2022-07-28T05:28:28.522Z,98481.94
2022-07-28T05:31:02.118Z,98476.97
2022-07-28T05:33:35.218Z,98486.00
2022-07-28T05:36:09.251Z,98486.66
2022-07-28T05:38:58.090Z,98480.22
2022-07-28T05:41:28.211Z,98484.44
2022-07-28T05:44:04.598Z,98487.59
2022-07-28T05:46:39.882Z,98472.69
2022-07-28T05:49:17.696Z,98485.13
2022-07-28T05:51:50.348Z,98488.81
2022-07-28T05:54:24.439Z,98485.03
2022-07-28T05:57:01.777Z,98484.97
2022-07-28T05:59:32.122Z,98474.63
2022-07-28T06:02:14.907Z,98471.50
2022-07-28T06:04:51.023Z,98468.34
2022-07-28T06:10:20.716Z,98453.13
2022-07-28T06:12:54.477Z,98475.19
2022-07-28T06:15:28.782Z,98444.53
2022-07-28T06:18:03.883Z,98468.06
2022-07-28T06:20:34.671Z,98462.63
2022-07-28T06:23:05.930Z,98459.81
2022-07-28T06:25:42.255Z,98457.66
2022-07-28T06:28:12.689Z,98456.91
2022-07-28T06:30:48.903Z,98443.50
2022-07-28T06:33:27.915Z,98454.16
2022-07-28T06:36:03.675Z,98449.75
2022-07-28T06:38:35.230Z,98452.03
2022-07-28T06:41:15.551Z,98443.47
2022-07-28T06:43:53.931Z,98450.22
2022-07-28T06:46:34.750Z,98446.75
2022-07-28T06:52:13.680Z,98436.72
2022-07-28T06:54:48.988Z,98445.44
2022-07-28T06:57:23.345Z,98450.44
2022-07-28T07:00:17.488Z,98443.81
2022-07-28T07:02:48.798Z,98446.69
2022-07-28T07:05:24.912Z,98439.84
2022-07-28T07:07:57.931Z,98423.97
2022-07-28T07:10:32.059Z,98439.81
2022-07-28T07:13:07.491Z,98448.00
2022-07-28T07:15:39.582Z,98439.50
2022-07-28T07:18:17.872Z,98423.16
2022-07-28T07:20:57.809Z,98441.81
2022-07-28T07:23:30.286Z,98435.03
2022-07-28T07:26:04.080Z,98427.66
2022-07-28T07:28:45.994Z,98432.63
2022-07-28T07:31:24.509Z,98426.81
2022-07-28T07:33:57.384Z,98426.09
2022-07-28T07:36:34.744Z,98417.72
2022-07-28T07:39:08.736Z,98421.06
2022-07-28T07:41:42.614Z,98414.59
2022-07-28T07:44:18.158Z,98416.63
2022-07-28T07:46:54.315Z,98412.31
2022-07-28T07:49:45.111Z,98414.38
2022-07-28T07:52:16.669Z,98411.09
2022-07-28T07:54:46.989Z,98407.84
2022-07-28T07:57:19.844Z,98406.31
2022-07-28T08:00:03.919Z,98407.13
2022-07-28T08:02:41.955Z,98386.53
2022-07-28T08:05:12.340Z,98390.97
2022-07-28T08:07:46.765Z,98393.41
2022-07-28T08:10:25.685Z,98402.28
2022-07-28T08:12:59.353Z,98397.44
2022-07-28T08:15:29.988Z,98405.09
2022-07-28T08:18:12.036Z,98397.81
2022-07-28T08:20:45.484Z,98398.22
2022-07-28T08:26:16.135Z,98398.63
2022-07-28T08:28:46.702Z,98397.34
2022-07-28T08:31:24.340Z,98396.44
2022-07-28T08:34:01.864Z,98406.13
2022-07-28T08:36:39.134Z,98403.78
2022-07-28T08:39:11.480Z,98400.41
2022-07-28T08:42:01.241Z,98410.59
2022-07-28T08:44:42.211Z,98402.06
2022-07-28T08:47:20.506Z,98400.22
2022-07-28T08:50:03.260Z,98411.13
2022-07-28T08:52:36.930Z,98409.84
2022-07-28T08:55:19.245Z,98407.78
2022-07-28T08:57:51.354Z,98395.19
2022-07-28T09:00:22.604Z,98415.34
2022-07-28T09:03:00.645Z,98411.31
2022-07-28T09:05:41.808Z,98404.97
2022-07-28T09:08:14.820Z,98408.41
2022-07-28T09:10:47.719Z,98407.72
2022-07-28T09:13:40.747Z,98413.94
2022-07-28T09:16:11.825Z,98414.13
2022-07-28T09:18:44.827Z,98404.19
2022-07-28T09:21:21.652Z,98403.53
2022-07-28T09:24:03.920Z,98399.50
2022-07-28T09:26:41.022Z,98398.31
2022-07-28T09:29:11.584Z,98407.44
2022-07-28T09:31:58.746Z,98408.41
2022-07-28T09:34:30.065Z,98400.28
2022-07-28T09:37:04.827Z,98392.72
2022-07-28T09:39:36.602Z,98394.75
2022-07-28T09:42:13.732Z,98390.72
2022-07-28T09:45:00.065Z,98382.88
2022-07-28T09:47:44.525Z,98392.06
2022-07-28T09:50:27.373Z,98392.88
2022-07-28T09:53:13.678Z,98390.19
2022-07-28T09:56:05.159Z,98391.91
2022-07-28T09:58:37.170Z,98384.50
2022-07-28T10:01:26.529Z,98387.53
2022-07-28T10:04:02.697Z,98365.63
2022-07-28T10:06:39.567Z,98383.59
2022-07-28T10:09:14.905Z,98376.91
2022-07-28T10:11:52.563Z,98374.59
2022-07-28T10:14:33.863Z,98364.28
2022-07-28T10:17:16.807Z,98371.84
2022-07-28T10:19:53.545Z,98366.31
2022-07-28T10:22:28.317Z,98362.94
2022-07-28T10:25:01.133Z,98350.19
2022-07-28T10:27:43.071Z,98358.69
2022-07-28T10:30:14.845Z,98361.81
2022-07-28T10:33:06.018Z,98353.09
2022-07-28T10:35:54.196Z,98353.91
2022-07-28T10:38:26.033Z,98352.72
2022-07-28T10:40:56.628Z,98352.03
2022-07-28T10:43:36.049Z,98353.50
2022-07-28T10:46:24.161Z,98338.16
2022-07-28T10:48:52.870Z,98337.00
2022-07-28T10:51:32.455Z,98343.78
2022-07-28T10:54:34.189Z,98345.09
2022-07-28T10:57:21.231Z,98341.69
2022-07-28T11:00:52.816Z,98351.41
2022-07-28T11:03:50.583Z,98343.84
2022-07-28T11:06:42.339Z,98345.94
2022-07-28T11:09:30.954Z,98338.03
2022-07-28T11:11:59.454Z,98345.38
2022-07-28T11:15:18.188Z,98336.25
2022-07-28T11:18:04.507Z,98330.66
2022-07-28T11:21:04.844Z,98329.97
2022-07-28T11:23:57.776Z,98337.06
2022-07-28T11:26:39.130Z,98335.75
2022-07-28T11:29:16.656Z,98336.81
2022-07-28T11:32:01.834Z,98328.88
2022-07-28T11:35:12.470Z,98340.56
2022-07-28T11:38:15.175Z,98344.59
2022-07-28T11:41:03.751Z,98334.81
2022-07-28T11:43:43.066Z,98328.03
2022-07-28T11:46:30.129Z,98337.44
2022-07-28T11:49:28.941Z,98332.84
2022-07-28T11:52:19.832Z,98328.50
2022-07-28T11:55:04.156Z,98326.66
2022-07-28T11:57:49.540Z,98326.50
2022-07-28T12:00:31.327Z,98318.03
2022-07-28T12:03:07.704Z,98318.13
2022-07-28T12:05:42.060Z,98312.28
2022-07-28T12:08:17.559Z,98316.53
2022-07-28T12:10:55.393Z,98309.16
2022-07-28T12:13:32.488Z,98318.97
2022-07-28T12:16:07.520Z,98304.50
2022-07-28T12:18:43.733Z,98306.03
2022-07-28T12:21:20.690Z,98313.94
2022-07-28T12:23:52.869Z,98304.81
2022-07-28T12:26:34.391Z,98306.50
2022-07-28T12:29:11.095Z,98305.72
2022-07-28T12:32:08.384Z,98293.63
2022-07-28T12:34:47.926Z,98293.63
2022-07-28T12:40:08.492Z,98285.34
2022-07-28T12:42:39.646Z,98285.66
2022-07-28T12:45:13.713Z,98285.91
2022-07-28T12:47:52.385Z,98280.50
2022-07-28T12:50:27.241Z,98276.75
2022-07-28T12:53:12.966Z,98286.03
2022-07-28T12:55:55.112Z,98289.44
2022-07-28T12:58:34.648Z,98270.97
2022-07-28T13:01:15.301Z,98277.31
2022-07-28T13:03:54.585Z,98285.56
2022-07-28T13:06:28.565Z,98268.63
2022-07-28T13:09:02.244Z,98268.09
2022-07-28T13:11:47.347Z,98282.22
2022-07-28T13:14:19.105Z,98265.28
2022-07-28T13:17:04.579Z,98284.13
2022-07-28T13:19:45.252Z,98266.16
2022-07-28T13:22:15.999Z,98249.00
2022-07-28T13:24:45.937Z,98255.88
2022-07-28T13:27:20.540Z,98259.41
2022-07-28T13:29:56.599Z,98246.72
2022-07-28T13:32:29.300Z,98231.94
2022-07-28T13:35:02.791Z,98228.56
2022-07-28T13:37:35.493Z,98237.22
2022-07-28T13:40:03.370Z,98236.13
2022-07-28T13:42:35.189Z,98242.44
2022-07-28T13:45:08.534Z,98231.41
2022-07-28T13:47:41.312Z,98227.97
2022-07-28T13:50:14.998Z,98224.97
2022-07-28T13:52:49.685Z,98218.88
2022-07-28T13:55:29.928Z,98219.75
2022-07-28T13:58:08.431Z,98221.59
2022-07-28T14:00:42.296Z,98217.34
2022-07-28T14:03:14.949Z,98202.66
2022-07-28T14:05:46.790Z,98220.09
2022-07-28T14:08:25.301Z,98216.66
2022-07-28T14:11:03.772Z,98221.59
2022-07-28T14:13:38.476Z,98227.34
2022-07-28T14:16:16.139Z,98223.63
2022-07-28T14:18:53.604Z,98218.94
2022-07-28T14:21:31.340Z,98224.41
2022-07-28T14:24:13.348Z,98221.22
2022-07-28T14:26:46.202Z,98212.63
2022-07-28T14:29:17.039Z,98215.91
2022-07-28T14:31:52.017Z,98210.72
2022-07-28T14:34:23.095Z,98211.31
2022-07-28T14:37:00.409Z,98214.16
2022-07-28T14:39:45.187Z,98206.06
2022-07-28T14:42:22.034Z,98202.13
2022-07-28T14:44:54.090Z,98209.56
2022-07-28T14:47:44.856Z,98212.72
2022-07-28T14:50:26.563Z,98214.78
2022-07-28T14:53:09.302Z,98214.97
2022-07-28T14:55:46.830Z,98198.63
2022-07-28T14:58:17.454Z,98192.94
2022-07-28T15:00:52.078Z,98200.16
2022-07-28T15:03:27.414Z,98201.75
2022-07-28T15:06:04.127Z,98188.72
2022-07-28T15:08:45.718Z,98173.81
2022-07-28T15:11:15.290Z,98183.31
2022-07-28T15:13:48.333Z,98194.19
2022-07-28T15:16:29.482Z,98190.81
2022-07-28T15:19:01.361Z,98197.06
2022-07-28T15:21:36.327Z,98185.78
2022-07-28T15:24:15.707Z,98183.41
2022-07-28T15:26:50.829Z,98192.94
2022-07-28T15:29:23.886Z,98188.44
2022-07-28T15:32:05.987Z,98182.34
2022-07-28T15:34:45.487Z,98190.94
2022-07-28T15:37:27.979Z,98186.72
2022-07-28T15:40:02.339Z,98184.25
2022-07-28T15:42:36.580Z,98181.25
2022-07-28T15:45:07.166Z,98174.50
2022-07-28T15:47:39.272Z,98168.97
2022-07-28T15:50:16.101Z,98165.31
2022-07-28T15:52:49.215Z,98161.66
2022-07-28T15:55:20.361Z,98165.56
2022-07-28T15:57:52.427Z,98167.69
2022-07-28T16:00:29.491Z,98163.28
2022-07-28T16:03:01.606Z,98164.44
2022-07-28T16:05:29.872Z,98158.28
2022-07-28T16:08:06.593Z,98155.72
2022-07-28T16:10:36.971Z,98151.38
2022-07-28T16:13:11.079Z,98138.56
2022-07-28T16:15:42.195Z,98149.97
2022-07-28T16:18:16.788Z,98139.19
2022-07-28T16:20:49.860Z,98143.78
2022-07-28T16:23:29.110Z,98151.81
2022-07-28T16:26:05.351Z,98149.13
2022-07-28T16:28:36.843Z,98144.84
2022-07-28T16:31:12.265Z,98145.50
2022-07-28T16:33:46.592Z,98135.03
2022-07-28T16:36:31.871Z,98142.75
2022-07-28T16:39:06.632Z,98136.44
2022-07-28T16:41:46.491Z,98134.88
2022-07-28T16:44:16.075Z,98112.16
2022-07-28T16:46:50.312Z,98135.34
2022-07-28T16:49:18.391Z,98132.94
2022-07-28T16:51:53.204Z,98130.63
2022-07-28T16:54:31.660Z,98133.75
2022-07-28T16:57:03.874Z,98145.69
2022-07-28T16:59:47.653Z,98135.28
2022-07-28T17:02:26.754Z,98132.63
2022-07-28T17:04:58.093Z,98131.22
2022-07-28T17:07:45.159Z,98134.13
2022-07-28T17:10:21.031Z,98134.31
2022-07-28T17:13:01.336Z,98127.28
2022-07-28T17:15:35.821Z,98114.97
2022-07-28T17:18:12.240Z,98137.22
2022-07-28T17:20:45.942Z,98131.50
2022-07-28T17:23:28.812Z,98135.56
2022-07-28T17:29:03.668Z,98135.38
2022-07-28T17:31:40.580Z,98134.22
2022-07-28T17:34:16.802Z,98133.44
2022-07-28T17:36:58.539Z,98073.84
2022-07-28T17:39:26.997Z,98142.34
2022-07-28T17:42:12.178Z,98140.31
2022-07-28T17:44:46.402Z,98142.47
2022-07-28T17:47:21.048Z,98149.56
2022-07-28T17:49:56.477Z,98149.38
2022-07-28T17:52:34.057Z,98144.97
2022-07-28T17:55:24.399Z,98150.22
2022-07-28T17:57:59.708Z,98147.56
2022-07-28T18:00:42.189Z,98155.75
2022-07-28T18:03:17.699Z,98157.78
2022-07-28T18:05:50.626Z,98165.66
2022-07-28T18:08:19.706Z,98156.34
2022-07-28T18:10:58.670Z,98170.34
2022-07-28T18:13:29.847Z,98172.38
2022-07-28T18:16:00.986Z,98177.28
2022-07-28T18:18:32.162Z,98179.09
2022-07-28T18:21:03.039Z,98177.22
2022-07-28T18:23:36.825Z,98180.34
2022-07-28T18:26:14.485Z,98181.53
2022-07-28T18:28:46.566Z,98186.81
2022-07-28T18:31:24.699Z,98181.28
2022-07-28T18:34:09.035Z,98200.78
2022-07-28T18:36:48.101Z,98193.63
2022-07-28T18:39:30.657Z,98193.97
2022-07-28T18:42:14.534Z,98193.19
2022-07-28T18:44:44.307Z,98197.66
2022-07-28T18:47:17.522Z,98192.84
2022-07-28T18:49:49.919Z,98198.50
2022-07-28T18:52:18.671Z,98201.00
2022-07-28T18:54:49.751Z,98192.56
2022-07-28T18:57:19.790Z,98203.41
2022-07-28T18:59:59.988Z,98203.84
2022-07-28T19:02:33.679Z,98195.44
2022-07-28T19:05:02.880Z,98204.34
2022-07-28T19:07:32.971Z,98209.59
2022-07-28T19:10:06.192Z,98210.84
2022-07-28T19:12:49.817Z,98216.47
2022-07-28T19:15:23.591Z,98223.78
2022-07-28T19:18:09.898Z,98195.94
2022-07-28T19:20:43.969Z,98221.41
2022-07-28T19:23:16.731Z,98225.81
2022-07-28T19:25:49.512Z,98235.50
2022-07-28T19:28:18.274Z,98236.31
2022-07-28T19:30:50.109Z,98239.94
2022-07-28T19:33:19.587Z,98241.19
2022-07-28T19:35:50.945Z,98254.88
2022-07-28T19:38:18.803Z,98261.72
2022-07-28T19:40:49.538Z,98264.03
2022-07-28T19:43:18.485Z,98268.72
2022-07-28T19:45:50.588Z,98271.44
2022-07-28T19:48:22.448Z,98280.00
2022-07-28T19:50:54.322Z,98279.91
2022-07-28T19:53:25.294Z,98288.06
2022-07-28T19:56:09.397Z,98297.56
2022-07-28T19:58:51.261Z,98295.31
2022-07-28T20:01:24.184Z,98295.25
2022-07-28T20:04:04.876Z,98305.00
2022-07-28T20:06:38.959Z,98305.69
2022-07-28T20:09:13.944Z,98310.75
2022-07-28T20:11:50.524Z,98301.13
2022-07-28T20:14:21.936Z,98310.09
2022-07-28T20:17:03.400Z,98312.06
2022-07-28T20:19:33.481Z,98311.44
2022-07-28T20:22:12.740Z,98325.31
2022-07-28T20:24:55.871Z,98327.38
2022-07-28T20:27:31.889Z,98326.75
2022-07-28T20:30:19.205Z,98325.78
2022-07-28T20:32:49.320Z,98346.19
2022-07-28T20:35:20.651Z,98337.47
2022-07-28T20:37:54.943Z,98334.81
2022-07-28T20:40:28.724Z,98331.72
2022-07-28T20:43:05.164Z,98338.44
2022-07-28T20:45:37.180Z,98339.78
2022-07-28T20:48:07.546Z,98341.41
2022-07-28T20:50:45.585Z,98336.63
2022-07-28T20:53:25.752Z,98309.31
2022-07-28T20:55:59.528Z,98341.84
2022-07-28T20:58:38.900Z,98336.66
2022-07-28T21:01:16.539Z,98340.75
2022-07-28T21:03:51.683Z,98339.91
2022-07-28T21:06:31.777Z,98336.25
2022-07-28T21:09:10.203Z,98339.03
2022-07-28T21:11:45.074Z,98344.19
2022-07-28T21:14:29.083Z,98347.66
2022-07-28T21:16:59.132Z,98325.38
2022-07-28T21:19:42.889Z,98339.44
2022-07-28T21:22:25.429Z,98317.81
2022-07-28T21:24:55.885Z,98339.59
2022-07-28T21:27:25.964Z,98336.78
2022-07-28T21:32:31.683Z,98346.16
2022-07-28T21:35:13.797Z,98343.88
2022-07-28T21:37:49.767Z,98349.56
2022-07-28T21:40:28.534Z,98348.91
2022-07-28T21:43:00.491Z,98345.59
2022-07-28T21:45:34.372Z,98347.13
2022-07-28T21:48:12.968Z,98355.19
2022-07-28T21:50:50.638Z,98364.78
2022-07-28T21:53:26.370Z,98358.91
2022-07-28T21:56:05.606Z,98364.66
2022-07-28T21:58:37.420Z,98367.22
2022-07-28T22:01:07.681Z,98354.97
2022-07-28T22:03:37.249Z,98366.28
2022-07-28T22:06:09.186Z,98363.97
2022-07-28T22:08:53.281Z,98344.13
2022-07-28T22:11:33.432Z,98365.91
2022-07-28T22:14:07.601Z,98361.94
2022-07-28T22:16:38.526Z,98365.56
2022-07-28T22:19:14.931Z,98357.72
2022-07-28T22:21:55.506Z,98362.06
2022-07-28T22:24:32.261Z,98367.59
2022-07-28T22:27:07.433Z,98354.03
2022-07-28T22:29:51.529Z,98361.56
2022-07-28T22:32:30.469Z,98362.69
2022-07-28T22:35:02.958Z,98367.50
2022-07-28T22:37:36.432Z,98374.94
2022-07-28T22:40:10.814Z,98361.06
2022-07-28T22:42:46.702Z,98364.00
2022-07-28T22:45:51.058Z,98346.16
2022-07-28T22:48:36.250Z,98367.97
2022-07-28T22:51:06.076Z,98357.00
2022-07-28T22:53:36.903Z,98359.75
2022-07-28T22:56:21.759Z,98358.81
2022-07-28T22:58:53.983Z,98363.19
2022-07-28T23:01:28.748Z,98354.19
2022-07-28T23:04:00.241Z,98365.03
2022-07-28T23:06:41.861Z,98357.34
2022-07-28T23:09:19.236Z,98353.47
2022-07-28T23:11:55.510Z,98367.38
2022-07-28T23:14:27.006Z,98371.97
2022-07-28T23:16:55.400Z,98355.97
2022-07-28T23:19:32.029Z,98370.91
2022-07-28T23:22:02.699Z,98369.66
2022-07-28T23:24:36.169Z,98371.91
2022-07-28T23:27:08.883Z,98367.16
2022-07-28T23:29:47.993Z,98366.34
2022-07-28T23:32:36.470Z,98372.25
2022-07-28T23:35:11.880Z,98374.81
2022-07-28T23:37:48.548Z,98359.03
2022-07-28T23:40:40.016Z,98368.53
2022-07-28T23:43:11.270Z,98367.63
2022-07-28T23:46:07.911Z,98367.00
2022-07-28T23:48:49.375Z,98367.13
2022-07-28T23:51:41.109Z,98381.81
2022-07-28T23:54:24.004Z,98373.16
2022-07-28T23:57:03.883Z,98383.63
2022-07-28T23:59:34.310Z,98367.09
